Airfield :
LOGIN :

Register | Disclaimer

   EN    FR    IT 

 










Legend :    VFR   Marginal VFR   IFR   Intensive IFR   Very Intensive IFR
Visi :
Ceiling :
>= 8 km
>= 3000ft
5 to 8 km
1000 to 3000 ft
1500m to 5 km
500 to 1000 ft
800 to 1500m
200 to 500 ft
< 800m
< 200 ft
Symbols :   Thunderstorms  Fog  Heavy snow  Heavy precipitations  Wind > 20 kt
SIGMETs :     Misc.  Thunderstorms  Icing  Turbulence  Mountain Waves  Volcanic Ashes






- Airport Elevation : 1106 ft


LFSO - Nancy / Ochey

CURRENT METAR :
  • 100030Z AUTO 27003KT CAVOK 10/02 Q1023

EXPIRED METARs :
  • 100000Z AUTO 36002KT CAVOK 11/02 Q1023
  • 092330Z AUTO VRB02KT CAVOK 11/02 Q1023
  • 092300Z AUTO 35003KT 320V030 CAVOK 13/01 Q1023
  • 092230Z AUTO VRB02KT CAVOK 12/01 Q1023
  • 092200Z AUTO 07003KT CAVOK 13/01 Q1023

TAF TAF LFSO
Valid from the 09 at 15:00 until the 10 at 15:00 UTC


091400Z 0915/1015 05005KT CAVOK



MET'MAP, your aeronautical weather chart ! - Copyright ORBIFLY December 2007 - Disclaimer

ORBIFLY MET'MAP TEAM :

Programming & Development : Alexandra Zaïnal
Concept & original design : Baudouin d'Aumeries
Assistance for programming : Marc-Olivier Méhu
Technical & hardware support : Manuel Goepfert

Contact : metmap@orbifly.com




SOURCES & CREDITS :

   NOAA